Time;durP1;ratioP1;P1;durP2;ratioP2;P2;SDS_P1;SDS_P2;PMS_P1;PMS_P2;Temp;Humidity;BMP_temperature;BMP_pressure;BME280_temperature;BME280_humidity;BME280_pressure;Samples;Min_cycle;Max_cycle;Signal;HPM_P1;HPM_P2
2021/01/11 00:02:25;;;;;;;8.57;6.32;;;26.00;59.10;;;;;;4962813;28;20229;-53
2021/01/11 00:04:55;;;;;;;6.70;6.00;;;26.00;59.20;;;;;;4964904;28;20234;-54
2021/01/11 00:07:26;;;;;;;6.18;5.68;;;26.00;59.30;;;;;;4966919;28;20232;-52
2021/01/11 00:09:56;;;;;;;6.80;6.13;;;26.00;59.40;;;;;;4968463;28;20237;-53
2021/01/11 00:12:27;;;;;;;7.03;6.32;;;26.00;59.40;;;;;;4969184;28;20327;-52
2021/01/11 00:14:58;;;;;;;7.45;6.18;;;26.00;59.50;;;;;;4970341;28;20600;-52
2021/01/11 00:17:29;;;;;;;7.45;5.82;;;26.00;59.50;;;;;;4968918;28;20285;-52
2021/01/11 00:20:00;;;;;;;5.97;5.38;;;26.00;59.40;;;;;;4964116;28;20612;-50
2021/01/11 00:22:30;;;;;;;7.05;6.05;;;26.00;59.40;;;;;;4965912;28;20256;-51
2021/01/11 00:25:01;;;;;;;6.45;5.88;;;26.00;59.50;;;;;;4967693;28;20236;-53
2021/01/11 00:27:31;;;;;;;6.05;5.45;;;26.00;59.60;;;;;;4969259;28;20245;-53
2021/01/11 00:30:05;;;;;;;7.38;5.88;;;26.10;59.50;;;;;;4970758;28;20332;-53
2021/01/11 00:32:35;;;;;;;7.72;5.65;;;26.10;59.60;;;;;;4962903;28;20268;-52
2021/01/11 00:35:07;;;;;;;6.28;5.68;;;26.10;59.50;;;;;;4974282;28;20614;-55
2021/01/11 00:37:38;;;;;;;7.18;5.80;;;26.10;59.50;;;;;;4964349;28;20240;-53
2021/01/11 00:40:09;;;;;;;7.03;5.07;;;26.20;59.60;;;;;;4985701;28;20685;-51
2021/01/11 00:42:40;;;;;;;6.18;5.32;;;26.10;59.50;;;;;;4980911;28;20290;-51
2021/01/11 00:45:13;;;;;;;7.40;5.55;;;26.20;59.60;;;;;;4989010;28;20279;-54
2021/01/11 00:47:44;;;;;;;6.75;5.90;;;26.20;59.40;;;;;;4958547;28;20721;-51
2021/01/11 00:50:15;;;;;;;6.45;5.75;;;26.30;59.50;;;;;;4962668;28;20243;-50
2021/01/11 00:52:45;;;;;;;7.88;6.00;;;26.30;59.40;;;;;;4961135;28;20260;-54
2021/01/11 00:55:16;;;;;;;17.63;6.35;;;26.30;59.40;;;;;;4965288;28;20290;-51
2021/01/11 00:57:47;;;;;;;7.43;5.93;;;26.40;59.30;;;;;;4964805;28;20705;-50
2021/01/11 01:00:19;;;;;;;8.48;5.85;;;26.40;59.20;;;;;;4965831;28;20228;-56
2021/01/11 01:02:50;;;;;;;6.95;5.93;;;26.50;59.20;;;;;;4957732;28;20241;-55
2021/01/11 01:05:21;;;;;;;5.80;5.30;;;26.50;59.10;;;;;;4964198;28;20741;-56
2021/01/11 01:07:51;;;;;;;6.93;6.10;;;26.60;59.10;;;;;;4960377;28;20241;-51
2021/01/11 01:10:21;;;;;;;6.75;5.80;;;26.60;58.90;;;;;;4958516;28;20308;-57
2021/01/11 01:12:52;;;;;;;8.82;6.50;;;26.60;58.90;;;;;;4956151;28;20327;-53
2021/01/11 01:15:23;;;;;;;6.70;6.00;;;26.70;58.90;;;;;;4966048;28;20315;-53
2021/01/11 01:17:54;;;;;;;6.75;5.97;;;26.70;58.80;;;;;;4956330;28;20236;-53
2021/01/11 01:20:24;;;;;;;7.38;6.03;;;26.70;58.60;;;;;;4962000;28;20227;-50
2021/01/11 01:22:55;;;;;;;7.18;6.07;;;26.80;58.60;;;;;;4959263;28;20648;-53
2021/01/11 01:25:25;;;;;;;7.05;5.70;;;26.80;58.50;;;;;;4986776;28;20276;-50
2021/01/11 01:27:56;;;;;;;6.53;5.93;;;26.90;58.60;;;;;;4959368;28;20240;-51
2021/01/11 01:30:27;;;;;;;7.03;6.32;;;26.90;58.50;;;;;;4961212;28;20240;-52
2021/01/11 01:32:59;;;;;;;7.50;6.53;;;27.00;58.30;;;;;;4959174;28;20247;-50
2021/01/11 01:35:30;;;;;;;7.60;6.90;;;27.00;58.30;;;;;;4961285;28;20720;-53
2021/01/11 01:38:01;;;;;;;9.65;6.70;;;27.10;58.10;;;;;;4968149;28;20236;-51
2021/01/11 01:40:32;;;;;;;7.57;6.85;;;27.10;58.00;;;;;;4964896;28;20719;-56
2021/01/11 01:43:03;;;;;;;9.25;6.95;;;27.10;58.00;;;;;;4953046;28;20241;-55
2021/01/11 01:45:36;;;;;;;8.05;6.53;;;27.20;58.70;;;;;;4963299;28;20256;-53
2021/01/11 01:48:07;;;;;;;7.95;6.95;;;27.30;58.00;;;;;;4964416;28;20504;-56
2021/01/11 01:50:38;;;;;;;9.00;6.78;;;27.30;57.80;;;;;;4992427;28;20694;-51
2021/01/11 01:53:08;;;;;;;7.78;6.97;;;27.30;57.80;;;;;;4969528;28;20237;-53
2021/01/11 01:55:39;;;;;;;10.38;7.07;;;27.40;57.70;;;;;;4968176;28;20237;-54
2021/01/11 01:58:10;;;;;;;7.20;6.43;;;27.40;57.30;;;;;;4968120;28;20244;-53
2021/01/11 02:00:42;;;;;;;9.63;6.35;;;27.40;57.20;;;;;;4961687;28;20237;-53
2021/01/11 02:03:12;;;;;;;7.53;6.50;;;27.50;57.30;;;;;;4967604;28;20283;-53
2021/01/11 02:05:43;;;;;;;9.88;7.10;;;27.50;57.30;;;;;;4960342;28;20862;-50
2021/01/11 02:08:17;;;;;;;8.25;6.50;;;27.50;57.10;;;;;;4964417;28;20251;-51
2021/01/11 02:10:56;;;;;;;8.60;5.80;;;27.60;57.10;;;;;;4961465;28;20229;-52
2021/01/11 02:13:46;;;;;;;7.57;5.93;;;27.70;57.00;;;;;;4967322;28;20221;-54
2021/01/11 02:16:24;;;;;;;6.45;5.80;;;27.70;56.90;;;;;;4963306;28;20252;-51
2021/01/11 02:19:28;;;;;;;9.40;6.55;;;27.70;56.80;;;;;;4961449;28;20221;-52
2021/01/11 02:22:11;;;;;;;6.80;6.18;;;27.80;56.70;;;;;;4958621;28;20233;-53
2021/01/11 02:25:16;;;;;;;7.10;6.50;;;27.80;56.50;;;;;;4963580;28;20228;-55
2021/01/11 02:27:48;;;;;;;8.35;6.03;;;27.90;56.60;;;;;;4964161;28;20247;-52
2021/01/11 02:30:29;;;;;;;6.75;6.00;;;28.00;56.80;;;;;;4924899;29;20270;-50
2021/01/11 02:33:06;;;;;;;7.80;6.20;;;28.00;56.50;;;;;;4917697;29;20604;-53
2021/01/11 02:36:01;;;;;;;7.72;6.05;;;28.10;56.30;;;;;;4925726;28;20252;-54
2021/01/11 02:38:31;;;;;;;8.93;6.68;;;28.20;56.10;;;;;;4964901;28;20268;-50
2021/01/11 02:41:02;;;;;;;7.07;6.38;;;28.30;56.00;;;;;;4966517;28;20751;-53
2021/01/11 02:43:34;;;;;;;7.07;6.47;;;28.30;56.00;;;;;;4967078;28;20253;-52
2021/01/11 02:46:06;;;;;;;10.40;6.68;;;28.40;55.80;;;;;;4961344;28;20696;-53
2021/01/11 02:48:37;;;;;;;8.73;7.28;;;28.40;56.00;;;;;;4993633;28;20724;-52
2021/01/11 02:51:13;;;;;;;7.95;7.15;;;28.50;55.60;;;;;;5023573;28;20234;-52
2021/01/11 02:53:49;;;;;;;8.05;7.03;;;28.60;55.30;;;;;;5015415;28;20234;-52
2021/01/11 02:56:22;;;;;;;11.95;6.88;;;28.60;55.20;;;;;;5023540;28;20252;-50
2021/01/11 02:59:10;;;;;;;8.23;6.75;;;28.70;55.50;;;;;;5021421;28;20296;-51
2021/01/11 03:01:47;;;;;;;12.20;7.50;;;28.80;55.60;;;;;;5019001;28;20310;-51
2021/01/11 03:04:24;;;;;;;9.13;7.25;;;28.80;55.30;;;;;;5017507;28;20756;-56
2021/01/11 03:06:58;;;;;;;9.38;7.32;;;28.90;55.30;;;;;;5019206;28;20233;-53
2021/01/11 03:09:29;;;;;;;10.55;7.65;;;29.00;55.10;;;;;;4989375;28;20227;-51
2021/01/11 03:11:59;;;;;;;11.48;8.65;;;29.00;55.00;;;;;;4966270;28;20312;-51
2021/01/11 03:14:30;;;;;;;10.60;8.45;;;29.10;54.50;;;;;;4965450;28;20228;-50
2021/01/11 03:17:01;;;;;;;11.68;7.72;;;29.10;54.40;;;;;;4962253;28;20229;-51
2021/01/11 03:19:32;;;;;;;9.57;8.43;;;29.20;54.40;;;;;;4963505;28;20228;-57
2021/01/11 03:22:03;;;;;;;8.25;7.45;;;29.20;54.50;;;;;;4963746;28;20225;-56
2021/01/11 03:24:33;;;;;;;8.02;6.80;;;29.30;54.70;;;;;;4963097;28;20708;-53
2021/01/11 03:27:04;;;;;;;9.55;7.22;;;29.30;54.40;;;;;;4960945;28;20237;-55
2021/01/11 03:29:34;;;;;;;7.70;6.60;;;29.40;54.60;;;;;;4969105;28;20229;-53
2021/01/11 03:32:06;;;;;;;9.15;7.05;;;29.40;54.40;;;;;;4963234;28;20243;-55
2021/01/11 03:34:37;;;;;;;8.30;7.13;;;29.50;54.20;;;;;;4969011;28;20243;-52
2021/01/11 03:37:07;;;;;;;7.07;6.47;;;29.50;53.80;;;;;;4965400;28;20236;-50
2021/01/11 03:39:38;;;;;;;6.82;6.22;;;29.60;53.60;;;;;;4965374;28;20233;-52
2021/01/11 03:42:08;;;;;;;6.28;5.78;;;29.70;53.80;;;;;;4968252;28;20310;-53
2021/01/11 03:44:40;;;;;;;7.53;6.40;;;29.80;53.60;;;;;;5002922;28;20244;-52
2021/01/11 03:47:13;;;;;;;7.78;6.00;;;29.90;53.30;;;;;;4968669;28;20297;-52
2021/01/11 03:49:43;;;;;;;7.20;5.43;;;29.90;53.10;;;;;;4967408;28;20237;-55
2021/01/11 03:52:14;;;;;;;8.68;7.30;;;30.00;53.40;;;;;;4962857;28;20685;-53
2021/01/11 03:54:44;;;;;;;6.88;6.00;;;30.10;53.50;;;;;;4967757;28;20241;-55
2021/01/11 03:57:14;;;;;;;7.72;6.38;;;30.20;53.20;;;;;;4968829;28;20453;-51
2021/01/11 03:59:45;;;;;;;6.65;5.97;;;30.20;52.70;;;;;;4965907;28;20233;-51
2021/01/11 04:02:16;;;;;;;7.28;6.68;;;30.30;52.40;;;;;;4966816;28;20237;-56
2021/01/11 04:04:47;;;;;;;7.32;6.63;;;30.40;52.30;;;;;;4967782;28;20238;-52
2021/01/11 04:07:17;;;;;;;7.72;6.80;;;30.40;52.00;;;;;;4967141;28;21024;-55
2021/01/11 04:09:47;;;;;;;7.10;6.40;;;30.40;51.80;;;;;;4967118;28;21719;-53
2021/01/11 04:12:18;;;;;;;7.00;6.30;;;30.60;52.10;;;;;;4963763;28;20317;-56
2021/01/11 04:14:48;;;;;;;10.73;5.90;;;30.60;52.10;;;;;;4967684;28;20240;-54
2021/01/11 04:17:20;;;;;;;6.55;5.95;;;30.70;52.40;;;;;;4965952;28;20240;-56
2021/01/11 04:19:50;;;;;;;10.18;6.72;;;30.70;52.00;;;;;;4968013;28;20232;-56
2021/01/11 04:22:21;;;;;;;7.40;6.20;;;30.80;51.80;;;;;;4963742;28;20281;-55
2021/01/11 04:24:51;;;;;;;6.72;6.03;;;30.90;52.00;;;;;;4964601;28;20320;-53
2021/01/11 04:27:22;;;;;;;8.85;6.38;;;30.90;51.80;;;;;;4968356;28;20237;-54
2021/01/11 04:29:52;;;;;;;8.88;7.10;;;31.00;51.90;;;;;;4968008;28;20320;-55
2021/01/11 04:32:24;;;;;;;8.63;6.85;;;31.10;51.40;;;;;;4967701;28;20240;-56
2021/01/11 04:34:54;;;;;;;8.57;7.00;;;31.10;51.30;;;;;;4966579;28;20232;-56
2021/01/11 04:37:24;;;;;;;9.68;7.10;;;31.20;51.20;;;;;;4969126;28;20305;-54
2021/01/11 04:39:55;;;;;;;7.60;6.85;;;31.20;51.10;;;;;;4968350;28;20244;-53
2021/01/11 04:42:29;;;;;;;7.65;6.95;;;31.30;50.90;;;;;;4965040;28;20268;-51
2021/01/11 04:45:00;;;;;;;9.15;6.32;;;31.30;50.70;;;;;;4956026;28;20943;-52
2021/01/11 04:47:32;;;;;;;6.82;6.13;;;31.40;50.80;;;;;;4957288;28;20221;-51
2021/01/11 04:50:03;;;;;;;7.13;6.45;;;31.50;50.70;;;;;;4973144;28;20356;-52
2021/01/11 04:52:34;;;;;;;7.25;6.55;;;31.50;50.80;;;;;;4963746;28;20256;-53
2021/01/11 04:55:04;;;;;;;7.72;7.13;;;31.50;50.60;;;;;;4964643;28;20372;-52
2021/01/11 04:57:35;;;;;;;7.30;6.47;;;31.60;50.70;;;;;;4966895;28;20310;-51
2021/01/11 05:00:07;;;;;;;7.10;6.40;;;31.60;50.60;;;;;;4963143;28;20231;-54
2021/01/11 05:02:41;;;;;;;9.35;6.72;;;31.70;50.50;;;;;;4964732;28;20236;-52
2021/01/11 05:05:12;;;;;;;7.50;6.28;;;31.80;50.30;;;;;;5020987;28;20572;-51
2021/01/11 05:07:42;;;;;;;10.65;6.65;;;31.80;50.60;;;;;;5016505;28;20249;-53
2021/01/11 05:10:14;;;;;;;6.82;6.18;;;31.90;50.10;;;;;;5018841;28;20317;-56
2021/01/11 05:12:44;;;;;;;7.80;6.13;;;32.00;50.20;;;;;;4960693;28;20315;-54
2021/01/11 05:15:18;;;;;;;6.55;5.95;;;32.00;50.10;;;;;;4901133;29;20262;-54
2021/01/11 05:17:50;;;;;;;6.05;5.55;;;32.10;50.30;;;;;;4899672;29;20912;-54
2021/01/11 05:20:22;;;;;;;5.95;5.45;;;32.20;50.00;;;;;;4903528;29;20254;-54
2021/01/11 05:22:54;;;;;;;6.20;5.70;;;32.30;50.50;;;;;;4899860;29;20239;-55
2021/01/11 05:25:25;;;;;;;5.93;5.32;;;32.40;49.70;;;;;;4906333;29;20247;-52
2021/01/11 05:28:10;;;;;;;5.63;5.13;;;32.40;49.70;;;;;;4907589;29;20254;-57
2021/01/11 05:30:41;;;;;;;6.22;5.45;;;32.50;49.10;;;;;;4911381;29;20254;-52
2021/01/11 05:33:17;;;;;;;6.30;5.70;;;32.60;49.50;;;;;;4908981;29;20238;-54
2021/01/11 05:35:48;;;;;;;6.28;5.13;;;32.70;48.80;;;;;;4928657;28;20699;-50
2021/01/11 05:38:19;;;;;;;9.38;6.10;;;32.80;48.50;;;;;;4966882;28;20307;-55
2021/01/11 05:40:49;;;;;;;6.25;5.65;;;32.80;48.10;;;;;;4966441;28;20244;-57
2021/01/11 05:43:20;;;;;;;6.18;5.57;;;32.90;47.60;;;;;;4985500;28;20245;-54
2021/01/11 05:45:51;;;;;;;6.10;5.13;;;32.90;47.20;;;;;;4998809;28;20689;-59
2021/01/11 05:48:23;;;;;;;6.28;5.10;;;32.90;47.20;;;;;;4963653;28;20816;-55
2021/01/11 05:50:53;;;;;;;6.15;5.40;;;33.00;47.40;;;;;;4968020;28;20745;-55
2021/01/11 05:53:24;;;;;;;5.43;4.93;;;33.00;47.60;;;;;;4961443;28;20229;-54
2021/01/11 05:55:55;;;;;;;5.18;4.68;;;33.10;47.60;;;;;;4971045;28;20236;-53
2021/01/11 05:58:25;;;;;;;6.68;4.80;;;33.10;47.60;;;;;;5008382;28;20312;-54
2021/01/11 06:00:57;;;;;;;5.70;5.20;;;33.20;47.50;;;;;;4985544;28;20232;-51
2021/01/11 06:03:28;;;;;;;6.07;5.22;;;33.20;47.30;;;;;;4968592;28;20224;-53
2021/01/11 06:05:59;;;;;;;5.25;4.75;;;33.20;46.70;;;;;;4966473;28;20259;-53
2021/01/11 06:08:29;;;;;;;5.75;5.22;;;33.30;47.50;;;;;;4922422;28;20230;-55
2021/01/11 06:11:00;;;;;;;6.35;5.75;;;33.40;46.60;;;;;;4920989;28;20237;-54
2021/01/11 06:13:31;;;;;;;6.25;5.35;;;33.40;46.50;;;;;;4926707;28;20248;-56
2021/01/11 06:16:01;;;;;;;5.32;4.63;;;33.50;46.60;;;;;;4888923;29;20697;-50
2021/01/11 06:18:35;;;;;;;5.40;4.88;;;33.50;46.30;;;;;;4888598;28;20235;-54
2021/01/11 06:21:06;;;;;;;5.45;4.95;;;33.60;46.20;;;;;;4890697;29;20318;-57
2021/01/11 06:23:40;;;;;;;5.93;4.78;;;33.60;45.80;;;;;;4889570;28;20235;-55
2021/01/11 06:26:30;;;;;;;7.18;4.88;;;33.60;45.60;;;;;;4891505;28;20282;-56
2021/01/11 06:29:01;;;;;;;5.05;4.55;;;33.70;45.10;;;;;;4890994;28;20235;-54
2021/01/11 06:31:32;;;;;;;5.43;4.95;;;33.70;45.30;;;;;;4890683;28;20258;-52
2021/01/11 06:34:03;;;;;;;6.47;5.00;;;33.70;45.40;;;;;;4890230;28;20247;-52
2021/01/11 06:36:34;;;;;;;5.93;4.70;;;33.70;45.50;;;;;;4890717;29;20318;-51
2021/01/11 06:39:07;;;;;;;5.57;5.10;;;33.70;45.60;;;;;;4909995;28;20766;-56
2021/01/11 06:41:38;;;;;;;5.68;5.18;;;33.80;45.70;;;;;;4945598;28;20260;-51
2021/01/11 06:44:08;;;;;;;6.82;6.22;;;33.90;45.50;;;;;;4945726;28;20233;-51
2021/01/11 06:46:46;;;;;;;6.50;5.97;;;33.90;44.80;;;;;;4956238;28;20237;-55
2021/01/11 06:49:28;;;;;;;7.20;5.45;;;34.00;43.90;;;;;;4961811;28;20236;-52
2021/01/11 06:52:16;;;;;;;5.10;4.70;;;34.00;44.30;;;;;;4963603;28;20311;-51
2021/01/11 06:54:46;;;;;;;5.60;4.03;;;34.10;44.90;;;;;;4987801;28;20315;-51
2021/01/11 06:57:19;;;;;;;5.28;4.85;;;34.10;45.10;;;;;;4963477;28;20243;-53
2021/01/11 06:59:51;;;;;;;5.75;5.05;;;34.20;44.80;;;;;;4962932;28;20241;-50
2021/01/11 07:02:23;;;;;;;5.40;4.80;;;34.20;44.50;;;;;;4959637;28;20234;-53
2021/01/11 07:04:54;;;;;;;5.25;4.75;;;34.30;43.90;;;;;;4919737;28;20663;-51
2021/01/11 07:07:26;;;;;;;5.40;4.40;;;34.40;44.20;;;;;;4928778;28;20229;-54
2021/01/11 07:09:58;;;;;;;4.78;4.38;;;34.40;44.30;;;;;;4921808;28;20253;-55
2021/01/11 07:12:28;;;;;;;5.28;4.78;;;34.40;43.90;;;;;;4924748;28;20261;-56
2021/01/11 07:15:06;;;;;;;5.45;4.95;;;34.40;44.00;;;;;;4962747;28;20230;-55
2021/01/11 07:17:42;;;;;;;5.10;4.65;;;34.50;43.80;;;;;;4922834;28;20763;-53
2021/01/11 07:20:14;;;;;;;5.45;4.95;;;34.60;44.00;;;;;;4917426;28;20649;-56
2021/01/11 07:22:47;;;;;;;4.75;4.35;;;34.60;43.60;;;;;;4956041;28;20632;-56
2021/01/11 07:25:22;;;;;;;4.97;4.47;;;34.70;43.30;;;;;;4961954;28;20233;-53
2021/01/11 07:27:56;;;;;;;4.70;4.30;;;34.70;43.10;;;;;;4964703;28;20254;-53
2021/01/11 07:30:27;;;;;;;4.50;4.10;;;34.70;43.30;;;;;;4967622;28;20247;-55
2021/01/11 07:32:58;;;;;;;4.60;4.20;;;34.70;43.20;;;;;;4960674;28;20237;-50
2021/01/11 07:35:30;;;;;;;5.55;4.60;;;34.70;43.30;;;;;;4960174;28;20243;-53
2021/01/11 07:38:00;;;;;;;5.25;4.50;;;34.80;43.00;;;;;;4999908;28;20225;-54
2021/01/11 07:40:30;;;;;;;4.45;4.05;;;34.90;42.80;;;;;;4968359;28;20373;-52
2021/01/11 07:43:01;;;;;;;5.05;4.55;;;34.90;43.10;;;;;;4956168;28;20239;-55
2021/01/11 07:45:31;;;;;;;5.45;3.95;;;35.00;42.90;;;;;;4960552;28;20369;-53
2021/01/11 07:48:03;;;;;;;5.07;4.68;;;35.00;42.90;;;;;;4962035;28;20267;-54
2021/01/11 07:50:34;;;;;;;4.80;4.40;;;35.00;42.50;;;;;;4979809;28;20240;-53
2021/01/11 07:53:05;;;;;;;3.75;3.45;;;35.10;42.80;;;;;;4960800;28;20234;-55
2021/01/11 07:55:39;;;;;;;4.60;3.90;;;35.10;43.10;;;;;;4963365;28;20331;-54
2021/01/11 07:58:11;;;;;;;4.05;3.75;;;35.20;43.20;;;;;;4962804;28;20295;-56
2021/01/11 08:00:41;;;;;;;3.88;3.58;;;35.20;43.20;;;;;;4961817;28;20264;-55
2021/01/11 08:03:12;;;;;;;4.78;4.35;;;35.30;43.20;;;;;;4975483;28;20311;-59
2021/01/11 08:05:44;;;;;;;6.32;4.57;;;35.30;42.80;;;;;;4961122;28;20282;-55
2021/01/11 08:08:14;;;;;;;4.32;4.00;;;35.40;42.60;;;;;;4961679;28;20237;-55
2021/01/11 08:10:45;;;;;;;4.40;3.92;;;35.40;42.50;;;;;;4919975;28;20234;-51
2021/01/11 08:13:15;;;;;;;4.18;3.78;;;35.50;42.80;;;;;;4921878;28;20226;-55
2021/01/11 08:15:46;;;;;;;5.47;3.88;;;35.50;42.80;;;;;;4927599;28;20237;-54
2021/01/11 08:18:17;;;;;;;4.43;4.03;;;35.60;42.70;;;;;;4937655;28;20270;-55
2021/01/11 08:20:48;;;;;;;4.90;3.95;;;35.70;42.60;;;;;;4881834;28;20270;-56
2021/01/11 08:23:19;;;;;;;4.50;3.75;;;35.70;42.20;;;;;;4886815;28;20266;-56
2021/01/11 08:25:50;;;;;;;4.13;3.75;;;35.80;41.80;;;;;;4919071;29;20234;-51
2021/01/11 08:28:20;;;;;;;5.72;4.85;;;35.80;41.60;;;;;;4924976;29;20238;-53
2021/01/11 08:30:50;;;;;;;5.18;4.75;;;35.80;41.50;;;;;;4918908;29;20293;-52
2021/01/11 08:33:21;;;;;;;5.10;4.53;;;35.80;41.40;;;;;;4871731;29;20242;-49
2021/01/11 08:35:53;;;;;;;4.78;4.38;;;35.80;41.70;;;;;;4876615;29;20346;-54
2021/01/11 08:38:23;;;;;;;5.10;4.65;;;35.80;41.80;;;;;;4892658;29;20227;-53
2021/01/11 08:40:55;;;;;;;4.60;4.20;;;35.80;41.30;;;;;;4894204;29;20251;-54
2021/01/11 08:43:25;;;;;;;4.95;4.03;;;35.80;41.70;;;;;;4835678;29;20337;-52
2021/01/11 08:45:55;;;;;;;4.90;4.20;;;35.80;42.10;;;;;;4799814;29;20242;-51
2021/01/11 08:48:26;;;;;;;4.95;4.55;;;35.80;42.10;;;;;;4798782;29;20249;-55
2021/01/11 08:51:01;;;;;;;5.32;4.93;;;35.80;42.20;;;;;;4844812;29;20295;-55
2021/01/11 08:53:40;;;;;;;5.70;5.22;;;35.80;41.90;;;;;;4891627;29;20262;-52
2021/01/11 08:56:15;;;;;;;5.57;5.03;;;35.90;42.40;;;;;;4891139;29;20659;-53
2021/01/11 08:58:49;;;;;;;5.55;5.13;;;35.90;42.30;;;;;;4889071;29;20247;-50
2021/01/11 09:01:22;;;;;;;6.03;5.53;;;36.00;42.10;;;;;;4889609;29;20230;-53
2021/01/11 09:03:54;;;;;;;6.63;4.82;;;36.10;41.80;;;;;;4901731;29;20247;-53
2021/01/11 09:06:37;;;;;;;6.13;4.82;;;36.10;41.80;;;;;;4937365;28;20237;-53
2021/01/11 09:09:08;;;;;;;4.72;4.32;;;36.10;41.60;;;;;;4964829;28;20281;-56
2021/01/11 09:11:38;;;;;;;5.63;4.47;;;36.10;41.60;;;;;;5024270;28;20721;-50
2021/01/11 09:14:09;;;;;;;5.25;4.72;;;36.10;41.60;;;;;;5002698;28;20648;-55
2021/01/11 09:16:40;;;;;;;11.18;5.72;;;36.20;42.80;;;;;;4972282;28;20642;-54
2021/01/11 09:19:11;;;;;;;6.57;5.85;;;36.20;43.80;;;;;;4965383;28;20633;-55
2021/01/11 09:21:42;;;;;;;11.93;8.88;;;36.20;44.20;;;;;;4966337;28;20311;-56
2021/01/11 09:24:13;;;;;;;7.63;6.88;;;36.30;44.60;;;;;;4967747;28;20294;-56
2021/01/11 09:26:44;;;;;;;7.20;6.32;;;36.30;44.70;;;;;;4962981;28;20229;-55
2021/01/11 09:29:14;;;;;;;6.30;5.70;;;36.20;44.80;;;;;;4962964;28;20228;-56
2021/01/11 09:31:45;;;;;;;6.35;5.75;;;36.30;45.00;;;;;;4962784;28;20239;-53
2021/01/11 09:34:16;;;;;;;6.85;6.15;;;36.30;45.00;;;;;;4956548;28;20229;-52
2021/01/11 09:36:47;;;;;;;8.20;6.85;;;36.30;45.00;;;;;;4966280;28;20319;-55
2021/01/11 09:39:18;;;;;;;7.72;6.70;;;36.30;44.90;;;;;;5016067;28;20229;-56
2021/01/11 09:41:50;;;;;;;10.25;7.28;;;36.30;44.80;;;;;;4985599;28;20423;-51
2021/01/11 09:44:21;;;;;;;6.63;6.00;;;36.30;45.20;;;;;;4973185;28;20226;-56
2021/01/11 09:46:52;;;;;;;6.63;5.93;;;36.30;44.90;;;;;;4982108;28;20725;-53
2021/01/11 09:49:22;;;;;;;6.93;6.18;;;36.30;45.20;;;;;;4966702;28;20261;-52
2021/01/11 09:51:54;;;;;;;7.85;6.03;;;36.30;45.20;;;;;;4995058;28;20257;-54
2021/01/11 09:54:24;;;;;;;6.30;5.78;;;36.30;45.20;;;;;;5008225;28;20271;-53
2021/01/11 09:56:57;;;;;;;5.75;5.25;;;36.30;45.20;;;;;;4981558;28;20240;-56
2021/01/11 09:59:28;;;;;;;9.25;6.40;;;36.30;45.10;;;;;;4961438;28;20229;-52
2021/01/11 10:01:58;;;;;;;6.60;6.00;;;36.20;45.10;;;;;;4965769;28;20232;-51
2021/01/11 10:04:29;;;;;;;6.70;6.05;;;36.20;45.20;;;;;;4958423;28;20256;-51
2021/01/11 10:07:00;;;;;;;7.90;7.03;;;36.30;45.20;;;;;;4960526;28;20237;-55
2021/01/11 10:09:31;;;;;;;7.07;6.47;;;36.30;45.10;;;;;;4965942;28;20309;-55
2021/01/11 10:12:02;;;;;;;6.85;6.20;;;36.20;45.10;;;;;;4964203;28;20244;-55
2021/01/11 10:14:33;;;;;;;6.60;6.00;;;36.20;45.00;;;;;;4967160;28;20229;-57
2021/01/11 10:17:03;;;;;;;7.35;6.65;;;36.20;45.20;;;;;;4961640;28;20324;-54
2021/01/11 10:19:34;;;;;;;6.50;5.90;;;36.20;45.30;;;;;;4964529;28;20228;-52
2021/01/11 10:22:06;;;;;;;6.70;6.15;;;36.20;45.50;;;;;;4967308;28;20233;-53
2021/01/11 10:24:36;;;;;;;6.10;5.50;;;36.20;45.40;;;;;;4967924;28;20583;-53
2021/01/11 10:27:06;;;;;;;7.70;4.75;;;36.40;43.90;;;;;;4965675;28;20220;-51
2021/01/11 10:29:37;;;;;;;5.45;4.00;;;36.50;43.40;;;;;;4967080;28;20228;-55
2021/01/11 10:32:07;;;;;;;8.70;4.70;;;36.60;42.60;;;;;;4967850;28;20229;-52
2021/01/11 10:34:38;;;;;;;5.25;4.75;;;36.80;42.30;;;;;;4966780;28;20244;-55
2021/01/11 10:37:10;;;;;;;4.95;4.55;;;36.90;41.80;;;;;;4966342;28;20257;-56
2021/01/11 10:39:40;;;;;;;8.98;8.13;;;36.90;41.60;;;;;;4996886;28;21859;-56
2021/01/11 10:42:11;;;;;;;10.93;9.93;;;37.00;41.30;;;;;;4955588;28;20261;-57
2021/01/11 10:44:41;;;;;;;8.05;7.25;;;37.00;41.00;;;;;;4982559;28;20377;-57
2021/01/11 10:47:11;;;;;;;8.27;5.38;;;36.90;40.70;;;;;;4964294;28;20301;-55
2021/01/11 10:49:42;;;;;;;5.90;5.30;;;36.80;40.90;;;;;;4965510;28;20233;-58
2021/01/11 10:52:13;;;;;;;5.70;5.10;;;36.70;40.60;;;;;;4961847;28;20225;-57
2021/01/11 10:54:44;;;;;;;5.45;4.95;;;36.60;40.70;;;;;;4958956;28;20586;-56
2021/01/11 10:57:15;;;;;;;7.70;4.97;;;36.40;40.60;;;;;;4957935;28;20241;-53
2021/01/11 10:59:46;;;;;;;5.05;4.43;;;36.20;40.70;;;;;;4969385;28;20237;-50
2021/01/11 11:02:17;;;;;;;6.43;4.80;;;36.00;40.90;;;;;;4962117;28;20700;-55
2021/01/11 11:04:48;;;;;;;6.35;4.47;;;35.80;41.10;;;;;;4961783;28;20229;-52
2021/01/11 11:07:19;;;;;;;5.30;4.28;;;35.60;41.30;;;;;;4962549;28;20239;-51
2021/01/11 11:09:50;;;;;;;5.10;4.47;;;35.40;41.60;;;;;;4982614;28;20322;-52
2021/01/11 11:12:20;;;;;;;5.30;4.75;;;35.20;41.80;;;;;;4961697;28;20289;-53
2021/01/11 11:14:51;;;;;;;5.18;4.65;;;35.00;42.10;;;;;;4963850;28;20264;-52
2021/01/11 11:17:21;;;;;;;5.10;4.60;;;34.80;42.30;;;;;;4990936;28;20233;-52
2021/01/11 11:19:52;;;;;;;4.75;4.25;;;34.60;42.50;;;;;;4958861;28;20615;-52
2021/01/11 11:22:27;;;;;;;4.78;4.38;;;34.50;42.80;;;;;;4973504;28;20296;-54
2021/01/11 11:24:58;;;;;;;5.40;4.70;;;34.40;43.10;;;;;;4953083;28;20229;-53
2021/01/11 11:27:29;;;;;;;4.72;4.32;;;34.30;43.30;;;;;;4966432;28;20274;-54
2021/01/11 11:29:59;;;;;;;5.53;5.03;;;34.10;43.50;;;;;;4961277;28;20260;-52
2021/01/11 11:32:30;;;;;;;5.65;5.05;;;34.00;43.80;;;;;;4964609;28;20271;-55
2021/01/11 11:35:00;;;;;;;7.25;5.53;;;34.00;44.50;;;;;;4958507;28;20263;-56
2021/01/11 11:37:31;;;;;;;5.68;5.00;;;33.80;44.20;;;;;;4962367;28;20244;-52
2021/01/11 11:40:02;;;;;;;5.40;4.78;;;33.70;44.30;;;;;;4966562;28;20278;-54
2021/01/11 11:42:35;;;;;;;5.65;5.13;;;33.70;44.30;;;;;;4962615;28;20232;-54
2021/01/11 11:45:07;;;;;;;5.30;4.80;;;33.50;44.50;;;;;;5000769;28;20262;-52
2021/01/11 11:47:38;;;;;;;5.75;5.22;;;33.50;44.70;;;;;;4988552;28;20233;-52
2021/01/11 11:50:09;;;;;;;5.47;4.97;;;33.40;44.80;;;;;;4964786;28;20256;-53
2021/01/11 11:52:40;;;;;;;6.53;5.80;;;33.30;45.10;;;;;;4971193;28;20290;-54
2021/01/11 11:55:11;;;;;;;5.72;5.18;;;33.20;45.40;;;;;;4986456;28;20237;-54
2021/01/11 11:57:43;;;;;;;6.55;5.80;;;33.10;45.90;;;;;;4963251;28;20246;-57
2021/01/11 12:00:15;;;;;;;7.85;7.07;;;33.00;46.90;;;;;;4974451;28;20228;-56
2021/01/11 12:02:46;;;;;;;6.50;5.90;;;33.00;47.60;;;;;;5004118;28;20225;-57
2021/01/11 12:05:17;;;;;;;7.47;6.78;;;32.90;48.00;;;;;;4995313;28;20232;-57
2021/01/11 12:07:50;;;;;;;7.55;6.85;;;32.80;48.40;;;;;;4961782;28;20301;-56
2021/01/11 12:10:21;;;;;;;8.38;7.57;;;32.70;48.90;;;;;;4970530;28;20224;-56
2021/01/11 12:12:52;;;;;;;14.13;11.95;;;32.70;48.90;;;;;;4963475;28;20239;-52
2021/01/11 12:15:22;;;;;;;13.85;12.15;;;32.60;49.30;;;;;;4956608;28;20244;-53
2021/01/11 12:17:53;;;;;;;10.93;9.70;;;32.50;49.50;;;;;;4958333;28;20728;-56
2021/01/11 12:20:24;;;;;;;10.95;8.70;;;32.50;49.80;;;;;;4963006;28;20328;-54
2021/01/11 12:22:56;;;;;;;7.63;6.95;;;32.40;50.10;;;;;;4961566;28;20243;-56
2021/01/11 12:25:26;;;;;;;9.60;8.60;;;32.30;50.30;;;;;;4960860;28;20812;-55
2021/01/11 12:27:56;;;;;;;42.30;33.63;;;32.30;50.50;;;;;;4963374;28;20259;-54
2021/01/11 12:30:27;;;;;;;41.60;33.63;;;32.20;50.70;;;;;;4958826;28;20713;-53
2021/01/11 12:32:58;;;;;;;45.47;34.10;;;32.10;51.00;;;;;;4959978;28;20674;-55
2021/01/11 12:35:28;;;;;;;56.03;42.28;;;32.10;51.10;;;;;;4966764;28;20750;-56
2021/01/11 12:37:59;;;;;;;73.72;50.63;;;32.00;51.20;;;;;;4969561;28;20328;-57
2021/01/11 12:40:30;;;;;;;118.18;89.88;;;32.00;51.50;;;;;;4976587;28;20232;-56
2021/01/11 12:43:01;;;;;;;76.40;56.47;;;31.90;51.50;;;;;;4971078;28;20233;-54
2021/01/11 12:45:32;;;;;;;59.70;42.15;;;31.90;50.90;;;;;;4961089;28;21952;-54
2021/01/11 12:48:02;;;;;;;45.05;32.75;;;31.80;50.50;;;;;;4963102;28;20233;-53
2021/01/11 12:50:32;;;;;;;31.98;22.85;;;31.70;50.40;;;;;;4957955;28;20596;-51
2021/01/11 12:53:04;;;;;;;28.92;20.25;;;31.70;50.20;;;;;;4957808;28;20291;-50
2021/01/11 12:55:34;;;;;;;19.67;14.50;;;31.60;50.00;;;;;;4961220;28;20321;-53
2021/01/11 12:58:05;;;;;;;12.27;10.70;;;31.60;50.10;;;;;;4966647;28;20240;-51
2021/01/11 13:00:36;;;;;;;14.18;10.30;;;31.50;49.80;;;;;;4955249;28;20243;-52
2021/01/11 13:03:07;;;;;;;12.02;9.85;;;31.40;49.80;;;;;;4967067;28;20634;-51
2021/01/11 13:05:40;;;;;;;11.70;7.65;;;31.40;49.70;;;;;;4961653;28;20678;-49
2021/01/11 13:08:12;;;;;;;11.30;7.25;;;31.30;49.50;;;;;;4964682;28;20748;-49
2021/01/11 13:10:43;;;;;;;10.32;6.95;;;31.30;49.60;;;;;;4962798;28;20337;-54